Time;durP1;ratioP1;P1;durP2;ratioP2;P2;SDS_P1;SDS_P2;PMS_P1;PMS_P2;Temp;Humidity;BMP_temperature;BMP_pressure;BME280_temperature;BME280_humidity;BME280_pressure;Samples;Min_cycle;Max_cycle;Signal;HPM_P1;HPM_P2
2023/04/05 00:00:06;;;;;;;0.98;0.10;;;19.20;65.60;;;;;;5042917;28;20061;-60
2023/04/05 00:02:35;;;;;;;0.60;0.10;;;19.20;65.60;;;;;;5031451;28;20572;-61
2023/04/05 00:05:03;;;;;;;0.70;0.10;;;19.20;65.60;;;;;;5030039;28;20137;-61
2023/04/05 00:07:33;;;;;;;0.80;0.20;;;19.20;65.60;;;;;;5041767;28;20051;-60
2023/04/05 00:10:01;;;;;;;;;;;19.10;65.40;;;;;;5031378;28;20137;-61
2023/04/05 00:12:27;;;;;;;;;;;19.10;65.30;;;;;;5031239;28;19925;-61
2023/04/05 00:14:55;;;;;;;0.60;0.10;;;19.10;65.30;;;;;;5033226;28;20412;-61
2023/04/05 00:17:22;;;;;;;0.73;0.10;;;19.10;65.40;;;;;;5049521;28;20103;-61
2023/04/05 00:19:50;;;;;;;1.02;0.20;;;19.10;65.40;;;;;;5040371;28;20049;-60
2023/04/05 00:22:24;;;;;;;0.50;0.10;;;19.10;65.40;;;;;;5030693;28;20061;-61
2023/04/05 00:24:51;;;;;;;0.43;0.10;;;19.10;65.40;;;;;;5029115;28;20053;-61
2023/04/05 00:27:20;;;;;;;1.27;0.17;;;19.10;65.40;;;;;;5037083;28;20390;-61
2023/04/05 00:29:46;;;;;;;1.02;0.10;;;19.10;65.40;;;;;;5047558;28;20060;-61
2023/04/05 00:32:13;;;;;;;0.65;0.10;;;19.00;65.30;;;;;;5050776;28;20049;-61
2023/04/05 00:34:40;;;;;;;1.10;0.80;;;19.00;65.30;;;;;;5037282;28;20053;-60
2023/04/05 00:37:07;;;;;;;0.77;0.10;;;19.00;65.70;;;;;;5033485;28;20081;-61
2023/04/05 00:39:34;;;;;;;0.70;0.10;;;19.00;65.30;;;;;;5041447;28;20049;-61
2023/04/05 00:42:02;;;;;;;0.80;0.20;;;19.00;65.30;;;;;;5038718;28;20053;-61
2023/04/05 00:44:33;;;;;;;0.50;0.10;;;19.00;65.30;;;;;;5037603;28;20052;-61
2023/04/05 00:47:00;;;;;;;0.50;0.10;;;19.00;65.20;;;;;;5040150;28;20115;-61
2023/04/05 00:49:28;;;;;;;0.90;0.17;;;19.00;65.20;;;;;;5038506;28;20056;-61
2023/04/05 00:51:57;;;;;;;0.50;0.10;;;18.90;65.20;;;;;;5041981;28;20064;-61
2023/04/05 00:54:24;;;;;;;1.20;0.10;;;18.90;65.20;;;;;;5034324;28;20060;-60
2023/04/05 00:56:52;;;;;;;0.85;0.10;;;18.90;65.10;;;;;;5030405;28;20049;-61
2023/04/05 00:59:20;;;;;;;1.00;0.40;;;18.90;65.10;;;;;;5041609;28;20126;-60
2023/04/05 01:01:54;;;;;;;1.02;0.10;;;18.90;65.10;;;;;;5042958;28;20053;-61
2023/04/05 01:04:25;;;;;;;0.63;0.10;;;18.90;65.10;;;;;;5046837;28;20048;-61
2023/04/05 01:07:04;;;;;;;0.40;0.10;;;18.90;65.10;;;;;;5047692;28;20045;-60
2023/04/05 01:09:45;;;;;;;1.17;0.10;;;18.90;65.00;;;;;;5047300;28;20490;-61
2023/04/05 01:12:16;;;;;;;1.42;0.10;;;18.90;65.00;;;;;;5039645;28;20509;-61
2023/04/05 01:14:45;;;;;;;1.10;0.32;;;18.90;64.90;;;;;;5048350;28;20112;-60
2023/04/05 01:17:15;;;;;;;0.70;0.10;;;18.90;64.90;;;;;;5034763;28;20057;-61
2023/04/05 01:19:46;;;;;;;0.82;0.10;;;18.90;65.00;;;;;;5028742;28;20045;-61
2023/04/05 01:22:51;;;;;;;0.93;0.20;;;18.90;65.00;;;;;;5033577;28;20826;-61
2023/04/05 01:25:38;;;;;;;0.98;0.50;;;18.90;64.80;;;;;;5027981;28;20510;-61
2023/04/05 01:28:44;;;;;;;0.60;0.10;;;19.00;64.90;;;;;;5039713;28;20049;-60
2023/04/05 01:31:20;;;;;;;0.70;0.10;;;19.00;64.60;;;;;;5046437;28;20132;-61
2023/04/05 01:33:55;;;;;;;1.25;0.60;;;19.10;64.50;;;;;;5037322;28;20064;-61
2023/04/05 01:36:26;;;;;;;;;;;19.10;64.50;;;;;;5044836;28;20133;-61
2023/04/05 01:38:54;;;;;;;0.75;0.10;;;19.10;64.50;;;;;;5036591;28;19929;-61
2023/04/05 01:41:22;;;;;;;1.08;0.10;;;19.20;64.40;;;;;;5042675;28;20417;-61
2023/04/05 01:43:49;;;;;;;0.52;0.10;;;19.30;64.30;;;;;;5033856;28;20045;-61
2023/04/05 01:46:17;;;;;;;1.10;0.35;;;19.30;64.20;;;;;;5037486;28;20083;-61
2023/04/05 01:48:44;;;;;;;0.90;0.13;;;19.30;64.10;;;;;;5028943;28;20049;-61
2023/04/05 01:51:11;;;;;;;0.50;0.10;;;19.40;64.20;;;;;;5036835;28;20045;-61
2023/04/05 01:53:38;;;;;;;1.23;0.40;;;19.40;64.10;;;;;;5028429;28;20522;-61
2023/04/05 01:56:05;;;;;;;1.05;0.38;;;19.50;64.00;;;;;;5043799;28;20056;-60
2023/04/05 01:58:32;;;;;;;0.30;0.00;;;19.50;63.90;;;;;;5038747;28;20045;-61
2023/04/05 02:00:59;;;;;;;0.63;0.15;;;19.60;63.90;;;;;;5031858;28;20045;-61
2023/04/05 02:03:27;;;;;;;0.40;0.10;;;19.60;63.80;;;;;;5028568;28;20062;-60
2023/04/05 02:05:54;;;;;;;0.93;0.40;;;19.70;63.70;;;;;;5027144;28;20049;-61
2023/04/05 02:08:21;;;;;;;1.23;0.10;;;19.70;63.70;;;;;;5029819;28;20049;-61
2023/04/05 02:10:48;;;;;;;0.73;0.10;;;19.70;63.60;;;;;;5046157;28;20059;-61
2023/04/05 02:13:15;;;;;;;0.50;0.10;;;19.70;63.50;;;;;;5042200;28;20049;-61
2023/04/05 02:15:48;;;;;;;0.65;0.10;;;19.70;63.50;;;;;;5030194;28;20060;-61
2023/04/05 02:18:15;;;;;;;0.45;0.00;;;19.70;63.50;;;;;;5045295;28;20090;-61
2023/04/05 02:20:43;;;;;;;0.95;0.50;;;19.70;63.40;;;;;;5036953;28;20508;-61
2023/04/05 02:23:10;;;;;;;0.95;0.50;;;19.70;63.40;;;;;;5048394;28;20159;-61
2023/04/05 02:25:37;;;;;;;0.77;0.35;;;19.70;63.40;;;;;;5039963;28;20502;-61
2023/04/05 02:28:04;;;;;;;0.63;0.10;;;19.70;63.40;;;;;;5038676;28;20053;-61
2023/04/05 02:30:32;;;;;;;0.45;0.10;;;19.70;63.90;;;;;;5048713;28;20068;-61
2023/04/05 02:33:00;;;;;;;0.60;0.10;;;19.70;63.30;;;;;;5030519;28;20687;-61
2023/04/05 02:35:27;;;;;;;1.23;0.32;;;19.60;63.30;;;;;;5035567;28;20268;-61
2023/04/05 02:37:56;;;;;;;1.13;0.10;;;19.60;63.30;;;;;;5037169;28;20041;-61
2023/04/05 02:40:23;;;;;;;0.70;0.45;;;19.60;63.40;;;;;;5047697;28;20053;-61
2023/04/05 02:42:50;;;;;;;0.90;0.20;;;19.50;63.40;;;;;;5044751;28;20041;-61
2023/04/05 02:45:17;;;;;;;1.35;0.50;;;19.50;63.50;;;;;;5033018;28;20046;-60
2023/04/05 02:47:44;;;;;;;0.52;0.08;;;19.50;63.50;;;;;;5038852;28;20049;-61
2023/04/05 02:50:11;;;;;;;0.88;0.22;;;19.40;63.50;;;;;;5030772;28;20469;-61
2023/04/05 02:52:38;;;;;;;1.35;0.55;;;19.40;63.60;;;;;;5031074;28;20056;-61
2023/04/05 02:55:07;;;;;;;0.98;0.55;;;19.40;63.60;;;;;;5037296;28;20073;-61
2023/04/05 02:57:34;;;;;;;0.88;0.10;;;19.30;63.60;;;;;;5033750;28;20049;-61
2023/04/05 03:00:01;;;;;;;1.10;0.10;;;19.30;63.60;;;;;;5032271;28;20410;-61
2023/04/05 03:02:28;;;;;;;0.93;0.40;;;19.30;63.70;;;;;;5038622;28;20427;-61
2023/04/05 03:04:55;;;;;;;1.02;0.50;;;19.30;63.70;;;;;;5030790;28;20061;-61
2023/04/05 03:07:24;;;;;;;0.63;0.00;;;19.30;63.70;;;;;;5044747;28;20460;-60
2023/04/05 03:09:52;;;;;;;0.90;0.40;;;19.20;63.70;;;;;;5042772;28;20057;-61
2023/04/05 03:12:21;;;;;;;0.50;0.10;;;19.20;63.80;;;;;;5033947;28;20084;-61
2023/04/05 03:14:48;;;;;;;0.55;0.10;;;19.20;63.80;;;;;;5051347;28;20048;-61
2023/04/05 03:17:15;;;;;;;0.43;0.08;;;19.20;63.80;;;;;;5040659;28;20053;-61
2023/04/05 03:19:41;;;;;;;0.35;0.00;;;19.10;63.80;;;;;;5035837;28;20056;-61
2023/04/05 03:22:09;;;;;;;1.00;0.70;;;19.10;63.70;;;;;;5047205;28;20056;-61
2023/04/05 03:24:36;;;;;;;0.63;0.17;;;19.10;63.80;;;;;;5045226;28;20533;-62
2023/04/05 03:27:04;;;;;;;0.40;0.00;;;19.10;63.80;;;;;;5038734;28;20496;-60
2023/04/05 03:29:33;;;;;;;1.48;0.15;;;19.10;63.90;;;;;;5051177;28;20448;-61
2023/04/05 03:32:00;;;;;;;0.70;0.10;;;19.00;63.80;;;;;;5041555;28;20049;-61
2023/04/05 03:34:29;;;;;;;0.73;0.10;;;19.00;63.90;;;;;;5047578;28;20060;-61
2023/04/05 03:36:56;;;;;;;0.52;0.10;;;19.00;63.90;;;;;;5049834;28;20049;-61
2023/04/05 03:39:23;;;;;;;0.75;0.10;;;19.00;63.90;;;;;;5037831;28;20453;-61
2023/04/05 03:41:50;;;;;;;0.63;0.10;;;18.90;63.90;;;;;;5041482;28;20053;-61
2023/04/05 03:44:17;;;;;;;0.60;0.10;;;19.00;64.00;;;;;;5040558;28;20063;-61
2023/04/05 03:46:45;;;;;;;1.05;0.20;;;18.90;63.90;;;;;;5049909;28;20068;-61
2023/04/05 03:49:12;;;;;;;1.35;0.70;;;18.90;64.00;;;;;;5048267;28;20080;-61
2023/04/05 03:51:39;;;;;;;1.38;0.63;;;18.90;63.90;;;;;;5030296;28;20053;-61
2023/04/05 03:54:06;;;;;;;1.08;0.40;;;18.90;63.90;;;;;;5047081;28;20053;-61
2023/04/05 03:56:33;;;;;;;1.00;0.60;;;18.90;63.80;;;;;;5033061;28;20044;-61
2023/04/05 03:59:00;;;;;;;1.00;0.50;;;18.90;63.80;;;;;;5033907;28;20091;-61
2023/04/05 04:01:27;;;;;;;1.23;0.13;;;18.90;63.80;;;;;;5045423;28;20060;-61
2023/04/05 04:03:55;;;;;;;0.60;0.10;;;18.90;63.60;;;;;;5034607;28;20521;-61
2023/04/05 04:06:25;;;;;;;0.52;0.10;;;19.00;63.60;;;;;;5033730;28;20061;-61
2023/04/05 04:08:52;;;;;;;0.77;0.10;;;19.00;63.50;;;;;;5031355;28;20056;-60
2023/04/05 04:11:19;;;;;;;0.55;0.10;;;19.10;63.50;;;;;;5029769;28;20091;-61
2023/04/05 04:13:46;;;;;;;0.38;0.00;;;19.10;63.40;;;;;;5038800;28;20063;-61
2023/04/05 04:16:13;;;;;;;0.50;0.10;;;19.20;63.40;;;;;;5049930;28;20052;-61
2023/04/05 04:18:40;;;;;;;0.90;0.50;;;19.20;63.30;;;;;;5030442;28;20056;-61
2023/04/05 04:21:09;;;;;;;0.38;0.10;;;19.30;63.30;;;;;;5044565;28;20045;-61
2023/04/05 04:23:37;;;;;;;0.93;0.50;;;19.30;63.20;;;;;;5036538;28;20059;-61
2023/04/05 04:26:04;;;;;;;0.40;0.10;;;19.30;63.20;;;;;;5030968;28;20045;-61
2023/04/05 04:28:33;;;;;;;0.60;0.20;;;19.30;63.10;;;;;;5036405;28;20385;-61
2023/04/05 04:31:03;;;;;;;0.73;0.10;;;19.40;63.10;;;;;;5036938;28;20053;-61
2023/04/05 04:33:30;;;;;;;0.70;0.10;;;19.40;63.00;;;;;;5032046;28;21739;-61
2023/04/05 04:36:01;;;;;;;0.63;0.10;;;19.50;63.00;;;;;;5030078;28;20049;-61
2023/04/05 04:38:33;;;;;;;0.60;0.10;;;19.50;62.90;;;;;;5040485;28;20659;-60
2023/04/05 04:41:01;;;;;;;0.55;0.10;;;19.60;62.80;;;;;;5049775;28;20045;-61
2023/04/05 04:43:32;;;;;;;0.90;0.40;;;19.70;62.70;;;;;;5041198;28;20053;-61
2023/04/05 04:45:59;;;;;;;0.50;0.10;;;19.70;62.60;;;;;;5035264;28;20421;-61
2023/04/05 04:48:26;;;;;;;0.50;0.00;;;19.70;62.50;;;;;;5030215;28;20046;-61
2023/04/05 04:50:53;;;;;;;1.00;0.52;;;19.70;62.40;;;;;;5046143;28;20048;-62
2023/04/05 04:53:20;;;;;;;0.70;0.10;;;19.80;63.10;;;;;;5029072;28;20064;-61
2023/04/05 04:55:49;;;;;;;1.13;0.40;;;19.80;62.50;;;;;;5030970;28;20069;-61
2023/04/05 04:58:17;;;;;;;0.90;0.50;;;19.80;62.50;;;;;;5030830;28;20049;-61
2023/04/05 05:00:44;;;;;;;0.57;0.05;;;19.80;62.50;;;;;;5044300;28;20044;-60
2023/04/05 05:03:12;;;;;;;0.40;0.00;;;19.70;62.40;;;;;;5048536;28;20052;-61
2023/04/05 05:05:42;;;;;;;0.60;0.10;;;19.70;62.40;;;;;;5049354;28;20076;-61
2023/04/05 05:08:09;;;;;;;0.77;0.50;;;19.70;62.40;;;;;;5035400;28;20044;-61
2023/04/05 05:10:36;;;;;;;1.00;0.50;;;19.70;62.40;;;;;;5035010;28;20513;-61
2023/04/05 05:13:05;;;;;;;0.30;0.00;;;19.70;62.40;;;;;;5029218;28;20045;-61
2023/04/05 05:15:32;;;;;;;0.75;0.10;;;19.70;62.40;;;;;;5048171;28;20076;-61
2023/04/05 05:17:59;;;;;;;0.50;0.00;;;19.60;62.40;;;;;;5036342;28;20053;-61
2023/04/05 05:20:27;;;;;;;1.13;0.15;;;19.60;62.40;;;;;;5032537;28;20053;-60
2023/04/05 05:22:54;;;;;;;0.55;0.10;;;19.60;62.50;;;;;;5030624;28;20041;-62
2023/04/05 05:25:21;;;;;;;0.60;0.10;;;19.50;62.50;;;;;;5041967;28;20049;-61
2023/04/05 05:27:49;;;;;;;0.70;0.10;;;19.50;62.50;;;;;;5029520;28;20129;-60
2023/04/05 05:30:19;;;;;;;0.70;0.20;;;19.50;62.60;;;;;;5039910;28;20480;-61
2023/04/05 05:32:46;;;;;;;;;;;19.50;62.60;;;;;;5034955;28;20079;-61
2023/04/05 05:35:13;;;;;;;0.50;0.10;;;19.40;62.60;;;;;;5034602;28;19921;-61
2023/04/05 05:37:40;;;;;;;1.55;0.35;;;19.30;62.70;;;;;;5041322;28;20051;-61
2023/04/05 05:40:08;;;;;;;0.52;0.20;;;19.30;62.80;;;;;;5047122;28;20417;-61
2023/04/05 05:42:35;;;;;;;0.35;0.10;;;19.30;63.30;;;;;;5028421;28;20458;-61
2023/04/05 05:45:04;;;;;;;0.60;0.10;;;19.30;62.80;;;;;;5032789;28;20406;-61
2023/04/05 05:47:33;;;;;;;1.25;0.30;;;19.20;62.80;;;;;;5038653;28;20410;-61
2023/04/05 05:50:00;;;;;;;0.52;0.10;;;19.20;62.90;;;;;;5043255;28;20060;-61
2023/04/05 05:52:27;;;;;;;1.00;0.22;;;19.20;62.90;;;;;;5039130;28;20057;-61
2023/04/05 05:54:54;;;;;;;0.77;0.10;;;19.20;62.90;;;;;;5028439;28;20050;-61
2023/04/05 05:57:22;;;;;;;0.60;0.00;;;19.10;62.90;;;;;;5042292;28;20047;-61
2023/04/05 05:59:49;;;;;;;1.00;0.10;;;19.10;63.00;;;;;;5035481;28;20111;-61
2023/04/05 06:02:16;;;;;;;1.25;0.20;;;19.10;63.60;;;;;;5028854;28;20050;-61
2023/04/05 06:04:44;;;;;;;0.57;0.10;;;19.10;63.10;;;;;;5036839;28;20057;-61
2023/04/05 06:07:11;;;;;;;1.05;0.63;;;19.10;63.10;;;;;;5033035;28;20462;-61
2023/04/05 06:09:38;;;;;;;1.52;0.32;;;19.10;63.20;;;;;;5037736;28;20073;-62
2023/04/05 06:12:06;;;;;;;0.50;0.10;;;19.00;63.30;;;;;;5032047;28;20065;-62
2023/04/05 06:14:33;;;;;;;0.63;0.40;;;19.10;63.40;;;;;;5032484;28;20049;-62
2023/04/05 06:17:00;;;;;;;0.80;0.10;;;19.20;63.40;;;;;;5034121;28;20053;-62
2023/04/05 06:19:27;;;;;;;0.75;0.15;;;19.30;63.30;;;;;;5030979;28;20063;-62
2023/04/05 06:21:55;;;;;;;1.00;0.10;;;19.30;63.10;;;;;;5045419;28;20072;-66
2023/04/05 06:24:22;;;;;;;1.85;0.10;;;19.50;63.00;;;;;;5040188;28;20061;-62
2023/04/05 06:26:51;;;;;;;1.40;0.13;;;19.50;62.90;;;;;;5039477;28;20414;-62
2023/04/05 06:29:17;;;;;;;2.85;0.40;;;19.60;63.00;;;;;;5027550;28;20497;-62
2023/04/05 06:31:46;;;;;;;1.25;0.25;;;19.60;62.90;;;;;;5028003;28;20053;-62
2023/04/05 06:34:13;;;;;;;0.32;0.03;;;19.70;62.90;;;;;;5041218;28;20144;-62
2023/04/05 06:36:40;;;;;;;0.60;0.15;;;19.80;62.70;;;;;;5032444;28;20056;-62
2023/04/05 06:39:08;;;;;;;0.75;0.30;;;19.90;62.70;;;;;;5036632;28;20749;-63
2023/04/05 06:41:35;;;;;;;0.95;0.00;;;19.90;62.60;;;;;;5033016;28;20053;-62
2023/04/05 06:44:02;;;;;;;0.70;0.20;;;20.10;62.50;;;;;;5032265;28;20053;-62
2023/04/05 06:46:29;;;;;;;0.57;0.10;;;20.10;62.40;;;;;;5042906;28;20045;-62
2023/04/05 06:48:56;;;;;;;0.47;0.00;;;20.20;62.20;;;;;;5044042;28;20045;-62
2023/04/05 06:51:24;;;;;;;1.45;0.17;;;20.20;62.10;;;;;;5033241;28;20049;-62
2023/04/05 06:53:51;;;;;;;0.60;0.10;;;20.30;62.10;;;;;;5032721;28;20132;-62
2023/04/05 06:56:20;;;;;;;0.98;0.20;;;20.40;62.10;;;;;;5031843;28;20167;-62
2023/04/05 06:58:48;;;;;;;1.10;0.20;;;20.40;62.00;;;;;;5035826;28;20064;-62
2023/04/05 07:01:16;;;;;;;0.60;0.20;;;20.40;61.90;;;;;;5034149;28;20067;-62
2023/04/05 07:03:43;;;;;;;0.90;0.30;;;20.40;61.80;;;;;;5030461;28;20111;-62
2023/04/05 07:06:10;;;;;;;0.43;0.10;;;20.40;61.90;;;;;;5044765;28;20049;-62
2023/04/05 07:08:37;;;;;;;0.80;0.10;;;20.50;62.40;;;;;;5032578;28;20041;-62
2023/04/05 07:11:04;;;;;;;0.35;0.10;;;20.40;61.80;;;;;;5039137;28;20400;-62
2023/04/05 07:13:33;;;;;;;0.80;0.30;;;20.40;61.80;;;;;;5039947;28;20059;-62
2023/04/05 07:16:01;;;;;;;0.80;0.10;;;20.40;61.70;;;;;;5032102;28;20572;-62
2023/04/05 07:18:28;;;;;;;0.70;0.10;;;20.40;61.80;;;;;;5035321;28;20050;-62
2023/04/05 07:21:00;;;;;;;0.82;0.10;;;20.40;61.80;;;;;;5050944;28;20128;-62
2023/04/05 07:23:27;;;;;;;1.67;0.32;;;20.40;61.80;;;;;;5038253;28;20055;-62
2023/04/05 07:25:55;;;;;;;0.90;0.10;;;20.40;61.80;;;;;;5032459;28;20077;-62
2023/04/05 07:28:22;;;;;;;0.40;0.20;;;20.30;61.80;;;;;;5032726;28;20053;-62
2023/04/05 07:30:51;;;;;;;1.55;0.20;;;20.40;61.90;;;;;;5040964;28;20052;-62
2023/04/05 07:33:18;;;;;;;;;;;20.30;61.90;;;;;;5042804;28;20065;-62
2023/04/05 07:35:45;;;;;;;0.82;0.10;;;20.30;62.00;;;;;;5031452;28;20340;-62
2023/04/05 07:38:12;;;;;;;0.75;0.10;;;20.30;61.90;;;;;;5031935;28;20091;-62
2023/04/05 07:40:40;;;;;;;0.98;0.13;;;20.30;61.90;;;;;;5041449;28;20049;-62
2023/04/05 07:43:07;;;;;;;1.00;0.20;;;20.30;62.00;;;;;;5034018;28;20053;-62
2023/04/05 07:45:34;;;;;;;1.00;0.20;;;20.30;62.00;;;;;;5044729;28;20045;-62
2023/04/05 07:48:02;;;;;;;0.68;0.10;;;20.30;62.00;;;;;;5044338;28;20044;-62
2023/04/05 07:50:29;;;;;;;1.58;0.40;;;20.30;62.10;;;;;;5037351;28;20041;-62
2023/04/05 07:52:56;;;;;;;0.93;0.10;;;20.30;62.10;;;;;;5035969;28;20568;-61
2023/04/05 07:55:23;;;;;;;1.20;0.47;;;20.30;62.20;;;;;;5041553;28;20052;-62
2023/04/05 07:57:50;;;;;;;1.40;0.43;;;20.20;62.20;;;;;;5028883;28;20079;-62
2023/04/05 08:00:18;;;;;;;0.70;0.10;;;20.30;62.20;;;;;;5038445;28;20056;-62
2023/04/05 08:02:45;;;;;;;0.80;0.43;;;20.30;62.30;;;;;;5046067;28;20064;-62
2023/04/05 08:05:13;;;;;;;0.80;0.40;;;20.20;62.40;;;;;;5046919;28;20053;-62
2023/04/05 08:07:40;;;;;;;0.47;0.10;;;20.20;62.30;;;;;;5034445;28;20049;-62
2023/04/05 08:10:08;;;;;;;0.60;0.10;;;20.20;62.40;;;;;;5030783;28;20049;-62
2023/04/05 08:12:35;;;;;;;0.70;0.10;;;20.20;62.40;;;;;;5037131;28;20053;-62
2023/04/05 08:15:02;;;;;;;0.60;0.10;;;20.20;62.40;;;;;;5029350;28;20052;-62
2023/04/05 08:17:29;;;;;;;0.80;0.28;;;20.20;62.40;;;;;;5030749;28;20946;-62
2023/04/05 08:19:56;;;;;;;0.70;0.10;;;20.10;62.40;;;;;;5028014;28;20041;-62
2023/04/05 08:22:28;;;;;;;0.80;0.22;;;20.20;62.40;;;;;;5031485;28;20064;-62
2023/04/05 08:24:55;;;;;;;0.73;0.20;;;20.20;62.50;;;;;;5032975;28;20144;-62
2023/04/05 08:27:22;;;;;;;0.98;0.45;;;20.10;62.50;;;;;;5042224;28;20057;-62
2023/04/05 08:29:49;;;;;;;0.70;0.10;;;20.10;62.50;;;;;;5029223;28;20053;-62
2023/04/05 08:32:16;;;;;;;0.60;0.10;;;20.10;62.50;;;;;;5038180;28;20088;-62
2023/04/05 08:34:43;;;;;;;0.82;0.10;;;20.10;62.50;;;;;;5038572;28;20055;-62
2023/04/05 08:37:10;;;;;;;1.10;0.10;;;20.10;62.50;;;;;;5034284;28;20041;-62
2023/04/05 08:39:38;;;;;;;0.60;0.10;;;20.10;62.60;;;;;;5029434;28;20057;-62
2023/04/05 08:42:11;;;;;;;0.50;0.10;;;20.10;62.50;;;;;;5037661;28;20057;-62
2023/04/05 08:44:41;;;;;;;0.73;0.10;;;20.10;62.60;;;;;;5029230;28;20116;-62
2023/04/05 08:47:13;;;;;;;1.10;0.10;;;20.10;62.60;;;;;;5035482;28;20053;-62
2023/04/05 08:49:43;;;;;;;0.70;0.10;;;20.10;62.60;;;;;;5030610;28;20049;-62
2023/04/05 08:52:10;;;;;;;0.68;0.10;;;20.00;62.60;;;;;;5028343;28;20388;-62
2023/04/05 08:54:39;;;;;;;0.70;0.10;;;20.10;62.70;;;;;;5036724;28;20107;-62
2023/04/05 08:57:07;;;;;;;1.60;0.20;;;20.10;62.70;;;;;;5037097;28;20216;-62
2023/04/05 08:59:38;;;;;;;0.65;0.10;;;20.10;62.70;;;;;;5044446;28;20421;-62
2023/04/05 09:02:16;;;;;;;0.45;0.10;;;20.10;62.80;;;;;;5036317;28;20072;-62
2023/04/05 09:04:44;;;;;;;0.82;0.10;;;20.00;62.70;;;;;;5028959;28;20042;-62
2023/04/05 09:07:14;;;;;;;1.15;0.50;;;20.10;62.70;;;;;;5027360;28;20056;-62
2023/04/05 09:09:46;;;;;;;1.10;0.32;;;20.00;62.70;;;;;;5027131;28;20045;-61
2023/04/05 09:12:13;;;;;;;0.90;0.10;;;20.00;62.80;;;;;;5030157;28;20056;-62
2023/04/05 09:14:41;;;;;;;1.00;0.60;;;20.00;62.80;;;;;;5035559;28;20532;-62
2023/04/05 09:17:09;;;;;;;2.38;0.55;;;20.00;62.80;;;;;;5036646;28;20092;-62
2023/04/05 09:19:36;;;;;;;0.40;0.10;;;20.00;62.80;;;;;;5033356;28;20041;-62
2023/04/05 09:22:04;;;;;;;1.02;0.50;;;20.00;62.80;;;;;;5033470;28;20129;-62
2023/04/05 09:24:39;;;;;;;1.15;0.60;;;20.00;62.90;;;;;;5033348;28;20057;-62
2023/04/05 09:27:09;;;;;;;1.08;0.20;;;20.10;62.90;;;;;;5031558;28;20132;-62
2023/04/05 09:29:38;;;;;;;0.50;0.10;;;20.10;62.90;;;;;;5029997;28;20123;-62
2023/04/05 09:32:06;;;;;;;0.70;0.40;;;20.10;62.90;;;;;;5029073;28;20048;-62
2023/04/05 09:34:35;;;;;;;0.77;0.20;;;20.00;62.90;;;;;;5029126;28;20042;-61
2023/04/05 09:37:03;;;;;;;0.68;0.10;;;20.00;62.90;;;;;;5042655;28;20094;-62
2023/04/05 09:39:32;;;;;;;1.40;0.40;;;20.00;62.90;;;;;;5034891;28;20138;-61
2023/04/05 09:42:09;;;;;;;0.77;0.10;;;20.10;62.90;;;;;;5030802;28;20482;-61
2023/04/05 09:44:50;;;;;;;0.68;0.10;;;20.10;62.90;;;;;;5030925;28;20053;-61
2023/04/05 09:47:17;;;;;;;0.52;0.10;;;20.10;63.00;;;;;;5028819;28;20079;-61
2023/04/05 09:49:44;;;;;;;0.60;0.10;;;20.10;63.00;;;;;;5035960;28;20055;-60
2023/04/05 09:52:19;;;;;;;0.90;0.30;;;20.10;62.90;;;;;;5038543;28;20111;-61
2023/04/05 09:54:46;;;;;;;1.55;0.10;;;20.10;62.90;;;;;;5041280;28;20528;-60
2023/04/05 09:57:16;;;;;;;1.02;0.43;;;20.10;62.90;;;;;;5029594;28;20514;-60
2023/04/05 09:59:43;;;;;;;0.77;0.10;;;20.20;63.00;;;;;;5015729;28;20464;-61
2023/04/05 10:02:11;;;;;;;0.35;0.00;;;20.20;63.00;;;;;;5048833;28;20077;-60
2023/04/05 10:04:42;;;;;;;0.75;0.20;;;20.20;63.00;;;;;;5047571;28;20103;-60
2023/04/05 10:07:12;;;;;;;0.75;0.10;;;20.20;63.00;;;;;;5047804;28;20158;-60
2023/04/05 10:09:39;;;;;;;0.73;0.45;;;20.20;63.00;;;;;;5041026;28;20063;-60
2023/04/05 10:12:08;;;;;;;0.68;0.10;;;20.30;63.10;;;;;;5055104;28;20205;-60
2023/04/05 10:14:37;;;;;;;0.80;0.10;;;20.30;63.00;;;;;;5054468;28;20119;-60
2023/04/05 10:17:16;;;;;;;0.65;0.10;;;20.20;63.00;;;;;;5052789;28;20061;-60
2023/04/05 10:19:59;;;;;;;0.90;0.20;;;20.30;63.10;;;;;;5053373;28;20056;-60
2023/04/05 10:22:33;;;;;;;0.40;0.10;;;20.30;63.10;;;;;;5063798;28;20493;-61
2023/04/05 10:25:08;;;;;;;1.08;0.57;;;20.30;63.10;;;;;;5063749;28;20045;-60
2023/04/05 10:27:40;;;;;;;1.40;0.20;;;20.40;63.10;;;;;;5053860;28;20386;-60
2023/04/05 10:30:11;;;;;;;0.52;0.10;;;20.40;63.10;;;;;;5062077;28;20405;-60
2023/04/05 10:32:48;;;;;;;0.80;0.10;;;20.40;63.10;;;;;;5054940;28;20064;-61
2023/04/05 10:35:17;;;;;;;0.75;0.10;;;20.40;63.00;;;;;;5069129;28;20051;-61
2023/04/05 10:38:01;;;;;;;1.08;0.10;;;20.40;63.00;;;;;;5056878;28;20056;-61
2023/04/05 10:40:33;;;;;;;0.70;0.10;;;20.50;63.10;;;;;;5052012;28;20045;-60
2023/04/05 10:43:00;;;;;;;1.08;0.10;;;20.50;63.10;;;;;;5062451;28;20488;-60
2023/04/05 10:45:29;;;;;;;2.00;0.43;;;20.50;63.10;;;;;;5058655;28;20556;-60
2023/04/05 10:48:04;;;;;;;0.85;0.50;;;20.60;63.10;;;;;;5070554;28;20056;-61
2023/04/05 10:50:32;;;;;;;0.93;0.22;;;20.60;63.10;;;;;;5070976;28;20052;-60
2023/04/05 10:53:00;;;;;;;0.98;0.50;;;20.60;63.10;;;;;;5055536;28;20150;-61
2023/04/05 10:55:28;;;;;;;0.75;0.10;;;20.60;63.10;;;;;;5056106;28;20040;-61
2023/04/05 10:57:55;;;;;;;0.80;0.10;;;20.60;63.10;;;;;;5056790;28;20048;-60
2023/04/05 11:00:23;;;;;;;0.60;0.10;;;20.70;63.20;;;;;;5069206;28;20424;-60
2023/04/05 11:02:56;;;;;;;0.75;0.10;;;20.60;63.10;;;;;;5051747;28;20053;-60
2023/04/05 11:05:32;;;;;;;1.30;0.10;;;20.70;63.20;;;;;;5063113;28;20079;-61
2023/04/05 11:08:03;;;;;;;1.00;0.10;;;20.70;63.20;;;;;;5054568;28;20045;-61
2023/04/05 11:10:30;;;;;;;1.00;0.40;;;20.70;63.20;;;;;;5065047;28;20040;-61
2023/04/05 11:13:13;;;;;;;0.50;0.10;;;20.70;63.20;;;;;;5069991;28;20500;-61
2023/04/05 11:15:40;;;;;;;0.22;0.10;;;20.70;63.30;;;;;;5058498;28;20153;-61
2023/04/05 11:18:11;;;;;;;1.60;0.30;;;20.80;63.20;;;;;;5068241;28;20048;-60
2023/04/05 11:20:45;;;;;;;0.70;0.10;;;20.80;63.30;;;;;;5066072;28;20048;-60
2023/04/05 11:23:17;;;;;;;0.70;0.10;;;20.80;63.30;;;;;;5066600;28;20404;-60
2023/04/05 11:25:51;;;;;;;1.30;0.40;;;20.80;63.30;;;;;;5061094;28;20052;-60
2023/04/05 11:28:31;;;;;;;3.05;0.10;;;20.90;63.40;;;;;;5051484;28;20041;-60
2023/04/05 11:31:12;;;;;;;1.52;0.10;;;20.90;63.30;;;;;;5051947;28;20103;-60
2023/04/05 11:33:57;;;;;;;1.00;0.43;;;20.90;63.30;;;;;;5051690;28;20053;-60
2023/04/05 11:36:40;;;;;;;0.88;0.10;;;21.00;63.40;;;;;;5050377;28;20045;-60
2023/04/05 11:39:26;;;;;;;1.10;0.60;;;21.00;63.30;;;;;;5056191;28;20098;-60
2023/04/05 11:41:56;;;;;;;0.85;0.10;;;21.00;63.40;;;;;;5063174;28;20059;-60
2023/04/05 11:44:24;;;;;;;1.33;0.10;;;21.00;63.30;;;;;;5069466;28;20045;-60
2023/04/05 11:46:51;;;;;;;0.80;0.15;;;21.00;63.30;;;;;;5066881;28;20134;-60
2023/04/05 11:49:22;;;;;;;0.77;0.13;;;21.10;63.30;;;;;;5049835;28;20048;-60
2023/04/05 11:51:50;;;;;;;0.73;0.13;;;21.10;63.30;;;;;;5052939;28;20095;-60
2023/04/05 11:54:29;;;;;;;0.65;0.35;;;21.10;63.30;;;;;;5048997;28;20041;-60
2023/04/05 11:56:56;;;;;;;0.65;0.10;;;21.10;63.40;;;;;;5050302;28;20544;-60
2023/04/05 11:59:29;;;;;;;1.30;0.10;;;21.10;63.30;;;;;;5047838;28;20053;-60
2023/04/05 12:02:01;;;;;;;0.90;0.43;;;21.20;63.40;;;;;;5060631;28;20048;-60
2023/04/05 12:04:29;;;;;;;0.60;0.10;;;21.20;63.40;;;;;;5061819;28;20087;-60
2023/04/05 12:07:10;;;;;;;0.70;0.10;;;21.20;63.40;;;;;;5057284;28;20061;-60
2023/04/05 12:09:54;;;;;;;0.93;0.73;;;21.30;63.40;;;;;;5058631;28;20059;-60
2023/04/05 12:12:22;;;;;;;1.10;0.20;;;21.30;63.40;;;;;;5058427;28;20087;-60
2023/04/05 12:14:49;;;;;;;0.88;0.20;;;21.30;63.40;;;;;;5060552;28;20531;-60
2023/04/05 12:17:16;;;;;;;1.27;0.10;;;21.30;63.40;;;;;;5063526;28;20438;-60
2023/04/05 12:19:44;;;;;;;0.50;0.10;;;21.30;63.40;;;;;;5056883;28;20060;-60
2023/04/05 12:22:12;;;;;;;0.60;0.10;;;21.40;63.40;;;;;;5049641;28;20052;-60
2023/04/05 12:24:39;;;;;;;0.77;0.10;;;21.40;63.40;;;;;;5047350;28;20056;-60
2023/04/05 12:27:06;;;;;;;0.40;0.10;;;21.40;63.40;;;;;;5048506;28;20063;-60
2023/04/05 12:29:33;;;;;;;0.50;0.10;;;21.40;63.40;;;;;;5049190;28;20053;-60
2023/04/05 12:32:03;;;;;;;0.68;0.40;;;21.40;63.40;;;;;;5050963;28;20049;-60
2023/04/05 12:34:30;;;;;;;0.50;0.10;;;21.50;63.40;;;;;;5049904;28;20055;-60
2023/04/05 12:37:02;;;;;;;1.52;0.50;;;21.50;64.00;;;;;;5047127;28;22857;-60
2023/04/05 12:39:30;;;;;;;0.75;0.10;;;21.50;63.40;;;;;;5058526;28;20094;-60
2023/04/05 12:41:59;;;;;;;1.27;0.47;;;21.50;63.40;;;;;;5054424;28;20045;-60
2023/04/05 12:44:30;;;;;;;0.50;0.10;;;21.60;63.40;;;;;;5063711;28;20049;-60
2023/04/05 12:47:02;;;;;;;0.70;0.20;;;21.60;63.40;;;;;;5062076;28;20048;-61
2023/04/05 12:49:29;;;;;;;0.38;0.10;;;21.60;63.40;;;;;;5059508;28;20044;-60
2023/04/05 12:52:02;;;;;;;0.73;0.10;;;21.60;63.40;;;;;;5060279;28;20044;-60
2023/04/05 12:54:31;;;;;;;1.00;0.60;;;21.60;63.40;;;;;;5055600;28;20045;-60
2023/04/05 12:56:58;;;;;;;0.90;0.50;;;21.70;63.40;;;;;;5048218;28;20052;-60